Terminal Aerodrome Forecast
Issued by NWS

Home | Current Version | Previous Version | Graphics & Text | Print | Product List | Glossary On
Versions: 1 2 3 4 5 6 7 8 9 10 11 12 13 14 15 16 17
000
FTUS43 KGRB 260500
TAFCWA
TAF
KCWA 260520Z 2606/2706 28005KT P6SM BKN120
     FM261600 29009G14KT P6SM SCT250
     FM270200 31003KT P6SM BKN150
      AMD LTD TO CLD VIS AND WIND TIL 261200=

USA.gov is the U.S. government's official web portal to all federal, state and local government web resources and services.